Time;durP1;ratioP1;P1;durP2;ratioP2;P2;SDS_P1;SDS_P2;PMS_P1;PMS_P2;Temp;Humidity;BMP_temperature;BMP_pressure;BME280_temperature;BME280_humidity;BME280_pressure;Samples;Min_cycle;Max_cycle;Signal;HPM_P1;HPM_P2
2023/01/21 00:01:30;;;;;;;51.92;18.65;;;;;;;-0.31;79.40;98221.38;5074267;28;20029;-75
2023/01/21 00:03:55;;;;;;;49.08;17.42;;;;;;;-0.28;79.62;98221.97;5074310;28;20036;-75
2023/01/21 00:06:20;;;;;;;34.80;13.30;;;;;;;-0.26;79.14;98220.69;5074282;28;20012;-75
2023/01/21 00:08:46;;;;;;;39.05;14.10;;;;;;;-0.24;79.50;98221.28;5073963;28;20041;-75
2023/01/21 00:11:14;;;;;;;33.70;13.63;;;;;;;-0.24;79.11;98220.47;5074148;28;20028;-76
2023/01/21 00:13:40;;;;;;;34.38;14.50;;;;;;;-0.26;78.85;98214.50;5073900;28;20561;-75
2023/01/21 00:16:06;;;;;;;40.65;16.23;;;;;;;-0.25;78.97;98216.94;5073025;28;20031;-76
2023/01/21 00:18:32;;;;;;;30.73;12.27;;;;;;;-0.24;78.95;98220.47;5074008;28;20111;-75
2023/01/21 00:20:58;;;;;;;30.75;13.68;;;;;;;-0.26;78.88;98217.19;5073894;28;20032;-75
2023/01/21 00:23:23;;;;;;;35.08;13.68;;;;;;;-0.27;79.13;98219.03;5073785;28;20036;-76
2023/01/21 00:25:49;;;;;;;24.67;11.52;;;;;;;-0.27;79.12;98215.53;5073583;28;20024;-75
2023/01/21 00:28:14;;;;;;;20.65;10.80;;;;;;;-0.26;78.62;98215.28;5073743;28;20111;-75
2023/01/21 00:30:40;;;;;;;32.00;14.68;;;;;;;-0.27;78.80;98216.34;5073623;28;20072;-75
2023/01/21 00:33:06;;;;;;;26.00;13.25;;;;;;;-0.26;78.68;98219.88;5073598;28;20035;-75
2023/01/21 00:35:31;;;;;;;24.58;11.90;;;;;;;-0.26;78.75;98222.56;5073749;28;20478;-76
2023/01/21 00:37:57;;;;;;;24.63;11.80;;;;;;;-0.28;78.83;98230.88;5073588;28;20027;-76
2023/01/21 00:40:22;;;;;;;22.70;11.60;;;;;;;-0.31;78.70;98220.56;5055820;28;20486;-75
2023/01/21 00:42:48;;;;;;;23.23;12.18;;;;;;;-0.32;78.93;98225.13;5072337;28;20024;-75
2023/01/21 00:45:13;;;;;;;24.58;11.85;;;;;;;-0.32;79.01;98219.75;5073320;28;20037;-75
2023/01/21 00:47:39;;;;;;;22.63;11.48;;;;;;;-0.30;79.05;98224.88;5073414;28;20030;-76
2023/01/21 00:50:05;;;;;;;23.17;11.43;;;;;;;-0.29;79.18;98223.03;5073318;28;20029;-75
2023/01/21 00:52:30;;;;;;;21.13;10.57;;;;;;;-0.33;78.37;98228.88;5073318;28;20490;-75
2023/01/21 00:54:56;;;;;;;24.42;11.38;;;;;;;-0.34;78.97;98229.94;5073328;28;20116;-75
2023/01/21 00:57:21;;;;;;;22.13;10.77;;;;;;;-0.34;78.46;98232.63;5073053;28;20055;-75
2023/01/21 00:59:47;;;;;;;21.42;11.23;;;;;;;-0.34;79.05;98231.78;5072894;28;20034;-75
2023/01/21 01:02:12;;;;;;;20.67;10.88;;;;;;;-0.32;79.02;98235.06;5073035;28;20035;-75
2023/01/21 01:04:37;;;;;;;21.38;10.48;;;;;;;-0.31;79.27;98240.25;5073124;28;20150;-75
2023/01/21 01:07:03;;;;;;;21.02;10.50;;;;;;;-0.32;79.13;98232.38;5073132;28;20029;-76
2023/01/21 01:09:29;;;;;;;20.33;9.73;;;;;;;-0.33;78.81;98244.22;5072757;28;20049;-75
2023/01/21 01:11:54;;;;;;;21.02;10.02;;;;;;;-0.32;79.09;98238.59;5072807;28;20549;-75
2023/01/21 01:14:21;;;;;;;22.70;10.38;;;;;;;-0.31;79.10;98242.13;5072859;28;20112;-75
2023/01/21 01:16:46;;;;;;;20.55;10.18;;;;;;;-0.28;79.26;98248.94;5072567;28;20493;-75
2023/01/21 01:19:11;;;;;;;20.95;10.00;;;;;;;-0.25;79.09;98248.47;5072871;28;20028;-75
2023/01/21 01:21:37;;;;;;;19.38;10.23;;;;;;;-0.24;79.52;98248.22;5072630;28;20453;-75
2023/01/21 01:24:03;;;;;;;21.55;10.23;;;;;;;-0.25;78.96;98256.56;5072646;28;20081;-75
2023/01/21 01:26:28;;;;;;;19.98;10.05;;;;;;;-0.27;79.30;98251.38;5072975;28;20425;-75
2023/01/21 01:28:54;;;;;;;18.95;9.85;;;;;;;-0.26;79.16;98244.94;5072096;28;20028;-75
2023/01/21 01:31:20;;;;;;;20.08;9.95;;;;;;;-0.27;78.85;98251.38;5072448;28;20028;-74
2023/01/21 01:33:46;;;;;;;21.48;10.52;;;;;;;-0.27;79.17;98247.88;5072458;28;20059;-75
2023/01/21 01:36:14;;;;;;;20.00;9.77;;;;;;;-0.26;79.26;98258.41;5072413;28;20060;-73
2023/01/21 01:38:40;;;;;;;20.88;10.45;;;;;;;-0.27;79.14;98259.47;5072473;28;20128;-73
2023/01/21 01:41:06;;;;;;;21.00;10.25;;;;;;;-0.25;79.04;98264.63;5072015;28;20082;-76
2023/01/21 01:43:49;;;;;;;21.48;9.80;;;;;;;-0.23;79.57;98265.22;5071984;28;20029;-72
2023/01/21 01:46:15;;;;;;;20.33;10.23;;;;;;;-0.21;79.02;98263.13;5070624;28;20025;-72
2023/01/21 01:48:43;;;;;;;21.13;9.73;;;;;;;-0.22;79.16;98264.19;5071665;28;20366;-72
2023/01/21 01:51:10;;;;;;;21.08;11.05;;;;;;;-0.24;79.60;98261.69;5067544;28;20024;-70
2023/01/21 01:53:41;;;;;;;21.02;10.60;;;;;;;-0.23;79.46;98271.44;5067776;28;20112;-70
2023/01/21 01:56:06;;;;;;;19.00;10.65;;;;;;;-0.19;79.59;98263.69;5069370;28;20032;-71
2023/01/21 01:58:32;;;;;;;21.63;10.18;;;;;;;-0.18;79.54;98270.72;5068581;28;20021;-69
2023/01/21 02:00:58;;;;;;;18.45;9.95;;;;;;;-0.13;79.83;98270.88;5069688;28;20792;-69
2023/01/21 02:03:44;;;;;;;17.48;9.15;;;;;;;-0.16;79.32;98265.94;5069579;28;20095;-69
2023/01/21 02:06:11;;;;;;;17.48;9.20;;;;;;;-0.17;79.30;98269.69;5070222;28;20027;-70
2023/01/21 02:08:37;;;;;;;19.38;9.40;;;;;;;-0.19;79.55;98266.38;5070129;28;20045;-70
2023/01/21 02:11:11;;;;;;;18.20;9.40;;;;;;;-0.20;78.87;98265.59;5069924;28;20076;-70
2023/01/21 02:13:37;;;;;;;19.42;9.30;;;;;;;-0.24;79.50;98260.91;5067547;28;20029;-70
2023/01/21 02:16:17;;;;;;;16.60;8.48;;;;;;;-0.25;78.94;98264.63;5068936;28;20020;-70
2023/01/21 02:18:56;;;;;;;17.10;8.70;;;;;;;-0.22;79.10;98256.09;5069149;28;20445;-70
2023/01/21 02:21:57;;;;;;;16.88;8.48;;;;;;;-0.20;79.20;98264.75;5068216;28;20028;-71
2023/01/21 02:24:40;;;;;;;16.23;8.18;;;;;;;-0.20;79.48;98265.59;5028361;28;20048;-72
2023/01/21 02:27:24;;;;;;;15.48;8.05;;;;;;;-0.20;79.06;98256.66;5070136;28;20052;-71
2023/01/21 02:30:14;;;;;;;16.58;9.10;;;;;;;-0.19;79.10;98255.59;5051080;28;20112;-71
2023/01/21 02:32:58;;;;;;;15.43;8.32;;;;;;;-0.17;79.39;98254.34;5067530;28;20024;-72
2023/01/21 02:35:41;;;;;;;15.18;8.15;;;;;;;-0.19;79.44;98252.91;5068949;28;20028;-72
2023/01/21 02:38:22;;;;;;;15.27;7.47;;;;;;;-0.19;79.64;98255.59;5051265;28;21270;-72
2023/01/21 02:40:47;;;;;;;13.60;7.10;;;;;;;-0.22;79.47;98242.63;5071799;28;20028;-72
2023/01/21 02:43:41;;;;;;;14.63;7.88;;;;;;;-0.23;79.55;98251.75;5074106;28;20021;-72
2023/01/21 02:46:35;;;;;;;13.02;6.93;;;;;;;-0.21;79.26;98245.06;5074959;28;20025;-72
2023/01/21 02:49:20;;;;;;;12.88;6.72;;;;;;;-0.15;79.60;98240.63;5066769;28;20037;-72
2023/01/21 02:51:47;;;;;;;14.18;6.63;;;;;;;-0.14;78.95;98241.47;5074826;28;20027;-72
2023/01/21 02:54:31;;;;;;;13.80;7.10;;;;;;;-0.13;79.28;98249.28;5074694;28;20103;-72
2023/01/21 02:56:57;;;;;;;12.80;6.82;;;;;;;-0.14;78.98;98242.25;5074631;28;20024;-72
2023/01/21 02:59:22;;;;;;;11.65;6.07;;;;;;;-0.13;79.02;98246.59;5074472;28;20074;-72
2023/01/21 03:02:20;;;;;;;13.77;6.80;;;;;;;-0.17;79.36;98254.34;5073924;28;20072;-72
2023/01/21 03:05:05;;;;;;;15.07;7.05;;;;;;;-0.18;79.25;98243.78;5054437;28;20028;-72
2023/01/21 03:07:39;;;;;;;12.27;5.70;;;;;;;-0.20;79.19;98246.72;5053506;28;20048;-72
2023/01/21 03:10:11;;;;;;;10.02;5.72;;;;;;;-0.18;79.49;98247.31;5053717;28;20055;-72
2023/01/21 03:12:59;;;;;;;11.52;5.95;;;;;;;-0.16;79.20;98244.38;5054018;28;20090;-72
2023/01/21 03:18:28;;;;;;;12.50;6.07;;;;;;;-0.17;79.16;98253.50;5054039;28;20048;-72
2023/01/21 03:21:08;;;;;;;12.80;6.13;;;;;;;-0.20;79.12;98244.03;5054065;28;20039;-72
2023/01/21 03:23:37;;;;;;;9.35;5.45;;;;;;;-0.19;79.26;98250.22;5054520;28;20029;-72
2023/01/21 03:26:05;;;;;;;12.95;6.07;;;;;;;-0.19;79.55;98242.97;5073185;28;20083;-72
2023/01/21 03:28:35;;;;;;;11.63;6.10;;;;;;;-0.21;79.43;98244.25;5073831;28;20032;-72
2023/01/21 03:31:10;;;;;;;11.00;5.87;;;;;;;-0.24;79.78;98247.41;5073893;28;20020;-72
2023/01/21 03:33:40;;;;;;;10.93;5.53;;;;;;;-0.27;79.15;98240.59;5073810;28;20033;-73
2023/01/21 03:36:12;;;;;;;14.23;6.03;;;;;;;-0.28;79.50;98236.25;5073823;28;20024;-72
2023/01/21 03:38:44;;;;;;;9.00;5.30;;;;;;;-0.28;79.20;98246.25;5056240;28;20082;-72
2023/01/21 03:41:16;;;;;;;9.88;5.53;;;;;;;-0.27;79.23;98239.78;5073809;28;20032;-72
2023/01/21 03:43:41;;;;;;;13.77;7.78;;;;;;;-0.27;79.39;98240.59;5055641;28;20028;-72
2023/01/21 03:46:31;;;;;;;10.10;5.63;;;;;;;-0.26;79.48;98250.31;5073679;28;20096;-72
2023/01/21 03:49:20;;;;;;;8.55;5.75;;;;;;;-0.24;79.27;98252.81;5073647;28;20025;-72
2023/01/21 03:51:50;;;;;;;9.20;5.50;;;;;;;-0.23;79.75;98252.56;5059137;28;20040;-72
2023/01/21 03:54:15;;;;;;;8.82;4.85;;;;;;;-0.23;79.70;98257.16;5072852;28;20033;-73
2023/01/21 03:56:41;;;;;;;7.80;4.53;;;;;;;-0.24;79.38;98264.41;5073576;28;20028;-73
2023/01/21 03:59:06;;;;;;;7.47;4.70;;;;;;;-0.24;79.74;98258.19;5073566;28;20064;-72
2023/01/21 04:01:32;;;;;;;8.95;4.75;;;;;;;-0.27;79.20;98258.66;5073379;28;20043;-73
2023/01/21 04:03:57;;;;;;;9.02;4.85;;;;;;;-0.25;79.25;98256.56;5073500;28;20108;-72
2023/01/21 04:06:22;;;;;;;8.75;4.95;;;;;;;-0.25;79.18;98253.88;5073370;28;20028;-72
2023/01/21 04:08:48;;;;;;;8.80;5.90;;;;;;;-0.25;79.35;98256.56;5073108;28;20055;-72
2023/01/21 04:11:14;;;;;;;10.55;5.25;;;;;;;-0.25;79.55;98260.06;5073356;28;20029;-72
2023/01/21 04:13:39;;;;;;;8.45;5.22;;;;;;;-0.25;79.04;98259.25;5073215;28;20064;-72
2023/01/21 04:16:05;;;;;;;9.48;5.40;;;;;;;-0.26;79.53;98254.91;5072978;28;20097;-72
2023/01/21 04:18:31;;;;;;;8.48;5.63;;;;;;;-0.26;78.99;98255.72;5073073;28;20431;-73
2023/01/21 04:20:57;;;;;;;8.70;5.03;;;;;;;-0.26;79.60;98257.59;5073059;28;20020;-72
2023/01/21 04:23:23;;;;;;;8.57;5.13;;;;;;;-0.28;79.57;98247.03;5073003;28;20528;-72
2023/01/21 04:25:49;;;;;;;7.25;4.63;;;;;;;-0.28;79.41;98240.84;5072657;28;20035;-72
2023/01/21 04:28:14;;;;;;;9.70;5.65;;;;;;;-0.26;79.36;98254.91;5054757;28;20103;-73
2023/01/21 04:30:40;;;;;;;9.00;5.80;;;;;;;-0.26;79.47;98252.22;5072889;28;20038;-72
2023/01/21 04:33:05;;;;;;;7.85;5.25;;;;;;;-0.30;79.94;98257.22;5072990;28;20029;-72
2023/01/21 04:35:31;;;;;;;9.55;6.07;;;;;;;-0.32;79.30;98252.09;5072894;28;20569;-72
2023/01/21 04:37:56;;;;;;;8.85;5.30;;;;;;;-0.32;79.88;98243.16;5072718;28;20025;-72
2023/01/21 04:40:21;;;;;;;8.90;5.53;;;;;;;-0.32;79.42;98252.09;5072431;28;20029;-72
2023/01/21 04:42:47;;;;;;;7.22;5.03;;;;;;;-0.32;79.28;98245.84;5072651;28;20037;-72
2023/01/21 04:45:12;;;;;;;10.10;6.43;;;;;;;-0.34;79.87;98253.34;5072768;28;20758;-72
2023/01/21 04:47:42;;;;;;;8.50;4.93;;;;;;;-0.32;79.50;98262.88;5054979;28;20032;-72
2023/01/21 04:50:08;;;;;;;9.60;5.30;;;;;;;-0.31;79.78;98261.81;5071396;28;20035;-73
2023/01/21 04:52:34;;;;;;;9.13;5.55;;;;;;;-0.32;79.40;98254.78;5073376;28;20031;-73
2023/01/21 04:54:59;;;;;;;8.40;4.90;;;;;;;-0.30;79.35;98251.84;5073283;28;20024;-73
2023/01/21 04:57:24;;;;;;;10.15;6.35;;;;;;;-0.32;79.51;98249.38;5073125;28;20103;-73
2023/01/21 04:59:50;;;;;;;9.43;6.10;;;;;;;-0.31;79.56;98252.88;5073136;28;20446;-73
2023/01/21 05:02:15;;;;;;;8.98;5.53;;;;;;;-0.31;79.32;98259.13;5072703;28;20375;-72
2023/01/21 05:04:40;;;;;;;9.20;5.25;;;;;;;-0.31;79.58;98258.28;5073375;28;20095;-71
2023/01/21 05:07:06;;;;;;;9.07;6.05;;;;;;;-0.34;79.59;98259.56;5073123;28;20036;-72
2023/01/21 05:09:31;;;;;;;10.45;5.80;;;;;;;-0.34;79.57;98254.19;5072714;28;20052;-72
2023/01/21 05:11:56;;;;;;;8.30;5.53;;;;;;;-0.34;79.71;98250.66;5072716;28;20036;-72
2023/01/21 05:14:22;;;;;;;8.48;5.75;;;;;;;-0.34;79.71;98259.56;5072940;28;20035;-72
2023/01/21 05:16:47;;;;;;;7.97;5.15;;;;;;;-0.35;79.61;98254.41;5072923;28;20028;-73
2023/01/21 05:19:13;;;;;;;8.43;5.07;;;;;;;-0.35;79.86;98249.00;5072085;28;20028;-72
2023/01/21 05:21:38;;;;;;;7.38;4.88;;;;;;;-0.37;79.78;98256.50;5072518;28;20032;-72
2023/01/21 05:24:03;;;;;;;8.63;5.10;;;;;;;-0.40;79.43;98238.94;5072544;28;20055;-72
2023/01/21 05:26:29;;;;;;;8.02;4.82;;;;;;;-0.39;79.72;98251.34;5072466;28;20025;-72
2023/01/21 05:28:56;;;;;;;6.43;4.60;;;;;;;-0.41;79.37;98256.16;5072500;28;20052;-72
2023/01/21 05:31:21;;;;;;;6.75;4.72;;;;;;;-0.41;79.57;98253.47;5072364;28;20025;-73
2023/01/21 05:33:46;;;;;;;8.13;5.07;;;;;;;-0.42;80.08;98253.69;5072392;28;20471;-73
2023/01/21 05:36:12;;;;;;;9.52;5.22;;;;;;;-0.42;79.62;98257.19;5054662;28;20107;-73
2023/01/21 05:38:38;;;;;;;9.23;5.55;;;;;;;-0.44;79.76;98245.84;5072498;28;20116;-72
2023/01/21 05:41:04;;;;;;;9.00;5.38;;;;;;;-0.42;79.56;98251.00;5072239;28;20116;-72
2023/01/21 05:43:31;;;;;;;8.45;5.07;;;;;;;-0.43;79.41;98249.38;5072355;28;20021;-72
2023/01/21 05:45:56;;;;;;;8.43;5.20;;;;;;;-0.42;79.89;98251.00;5072520;28;20020;-72
2023/01/21 05:48:22;;;;;;;9.55;6.28;;;;;;;-0.46;79.65;98251.47;5071757;28;20418;-73
2023/01/21 05:50:48;;;;;;;13.25;8.88;;;;;;;-0.50;79.76;98252.97;5071497;28;20060;-72
2023/01/21 05:53:16;;;;;;;8.75;6.13;;;;;;;-0.54;79.33;98250.94;5071698;28;20469;-72
2023/01/21 05:55:41;;;;;;;10.32;6.95;;;;;;;-0.51;79.99;98253.19;5071315;28;20074;-73
2023/01/21 05:58:07;;;;;;;10.18;6.82;;;;;;;-0.51;79.68;98263.97;5071143;28;20107;-72
2023/01/21 06:00:32;;;;;;;10.25;6.60;;;;;;;-0.53;79.71;98255.28;5071211;28;20040;-72
2023/01/21 06:03:02;;;;;;;8.05;5.35;;;;;;;-0.53;79.45;98241.81;5053154;28;20026;-72
2023/01/21 06:05:28;;;;;;;8.85;5.70;;;;;;;-0.54;79.89;98241.00;5070090;28;20533;-73
2023/01/21 06:07:53;;;;;;;9.68;5.72;;;;;;;-0.55;79.50;98241.22;5070889;28;20036;-72
2023/01/21 06:10:20;;;;;;;10.43;6.03;;;;;;;-0.55;79.74;98249.31;5071090;28;20031;-73
2023/01/21 06:12:48;;;;;;;9.35;6.10;;;;;;;-0.53;79.96;98250.72;5070933;28;20492;-72
2023/01/21 06:15:14;;;;;;;9.77;5.97;;;;;;;-0.54;79.75;98248.25;5070157;28;20504;-72
2023/01/21 06:17:39;;;;;;;9.43;5.60;;;;;;;-0.53;79.90;98244.50;5071012;28;20020;-72
2023/01/21 06:20:07;;;;;;;10.23;6.35;;;;;;;-0.54;79.88;98248.25;5070892;28;20678;-72
2023/01/21 06:22:32;;;;;;;9.45;6.10;;;;;;;-0.53;79.59;98239.97;5071020;28;20036;-73
2023/01/21 06:24:58;;;;;;;9.68;5.90;;;;;;;-0.54;79.80;98249.09;5071034;28;20071;-72
2023/01/21 06:27:23;;;;;;;10.88;5.60;;;;;;;-0.58;79.88;98247.06;5071063;28;20024;-73
2023/01/21 06:29:48;;;;;;;10.32;5.95;;;;;;;-0.62;79.58;98249.41;5071110;28;20498;-72
2023/01/21 06:32:14;;;;;;;11.35;6.75;;;;;;;-0.66;79.72;98251.75;5071286;28;20723;-73
2023/01/21 06:34:39;;;;;;;10.70;6.40;;;;;;;-0.67;79.63;98249.25;5071008;28;20359;-73
2023/01/21 06:37:04;;;;;;;11.73;7.03;;;;;;;-0.67;79.87;98263.56;5071011;28;20028;-72
2023/01/21 06:39:30;;;;;;;10.45;5.90;;;;;;;-0.69;79.58;98252.19;5071115;28;20445;-72
2023/01/21 06:41:55;;;;;;;11.23;6.43;;;;;;;-0.69;80.22;98254.88;5071127;28;20455;-72
2023/01/21 06:44:21;;;;;;;14.50;8.18;;;;;;;-0.68;79.66;98261.09;5070815;28;20093;-72
2023/01/21 06:46:47;;;;;;;10.25;6.15;;;;;;;-0.66;79.94;98262.50;5071165;28;20082;-72
2023/01/21 06:49:12;;;;;;;12.35;6.60;;;;;;;-0.66;79.92;98262.50;5070937;28;20033;-72
2023/01/21 06:51:37;;;;;;;11.88;6.90;;;;;;;-0.67;79.86;98258.19;5070904;28;20024;-72
2023/01/21 06:54:03;;;;;;;10.90;6.72;;;;;;;-0.66;79.92;98264.38;5070942;28;20020;-72
2023/01/21 06:56:28;;;;;;;15.13;8.05;;;;;;;-0.67;79.53;98262.72;5070874;28;20060;-72
2023/01/21 06:58:53;;;;;;;11.02;6.60;;;;;;;-0.63;79.98;98272.84;5052775;28;20406;-72
2023/01/21 07:01:19;;;;;;;11.18;6.13;;;;;;;-0.65;79.86;98274.94;5070378;28;20039;-72
2023/01/21 07:03:44;;;;;;;9.68;6.15;;;;;;;-0.68;80.05;98274.56;5052769;28;20027;-72
2023/01/21 07:06:10;;;;;;;10.43;6.22;;;;;;;-0.71;79.82;98281.22;5070573;28;20482;-73
2023/01/21 07:08:35;;;;;;;16.00;8.20;;;;;;;-0.71;79.40;98281.22;5070494;28;20045;-72
2023/01/21 07:11:01;;;;;;;13.93;7.38;;;;;;;-0.68;79.59;98285.31;5070693;28;20033;-72
2023/01/21 07:13:26;;;;;;;9.20;5.75;;;;;;;-0.69;79.73;98289.06;5070548;28;20028;-72
2023/01/21 07:15:51;;;;;;;11.88;6.13;;;;;;;-0.70;79.88;98298.19;5070401;28;20390;-72
2023/01/21 07:18:18;;;;;;;9.38;5.90;;;;;;;-0.69;79.50;98286.38;5070550;28;20029;-72
2023/01/21 07:20:43;;;;;;;9.90;5.72;;;;;;;-0.70;79.75;98304.41;5052473;28;20032;-72
2023/01/21 07:23:08;;;;;;;10.60;6.25;;;;;;;-0.68;79.79;98296.94;5070581;28;20040;-72
2023/01/21 07:25:36;;;;;;;11.40;6.65;;;;;;;-0.68;79.69;98302.31;5070803;28;20022;-72
2023/01/21 07:28:01;;;;;;;19.75;8.68;;;;;;;-0.64;79.68;98302.69;5074327;28;20174;-73
2023/01/21 07:30:27;;;;;;;11.85;6.85;;;;;;;-0.60;79.87;98306.56;5073247;28;20502;-73
2023/01/21 07:32:52;;;;;;;14.98;7.10;;;;;;;-0.59;79.55;98308.22;5073959;28;20040;-73
2023/01/21 07:35:17;;;;;;;15.50;8.18;;;;;;;-0.58;79.57;98307.16;5074030;28;20033;-73
2023/01/21 07:37:43;;;;;;;16.30;7.95;;;;;;;-0.59;79.36;98302.81;5074292;28;20501;-73
2023/01/21 07:40:09;;;;;;;19.23;9.90;;;;;;;-0.58;79.61;98304.47;5056030;28;20502;-72
2023/01/21 07:42:34;;;;;;;13.20;7.25;;;;;;;-0.55;79.93;98303.19;5073999;28;20031;-73
2023/01/21 07:45:02;;;;;;;12.70;6.85;;;;;;;-0.54;79.52;98304.81;5056130;28;20458;-73
2023/01/21 07:47:28;;;;;;;11.70;7.32;;;;;;;-0.55;79.62;98311.25;5073885;28;20029;-74
2023/01/21 07:49:54;;;;;;;12.85;6.85;;;;;;;-0.55;79.55;98313.94;5073712;28;20042;-73
2023/01/21 07:52:19;;;;;;;13.07;8.15;;;;;;;-0.53;79.30;98310.00;5073915;28;20029;-73
2023/01/21 07:54:46;;;;;;;11.95;7.68;;;;;;;-0.51;79.20;98313.28;5073620;28;20377;-73
2023/01/21 07:57:12;;;;;;;11.30;6.40;;;;;;;-0.48;79.55;98302.06;5073570;28;20086;-73
2023/01/21 07:59:38;;;;;;;16.55;8.15;;;;;;;-0.43;79.56;98308.63;5073587;28;20112;-73
2023/01/21 08:02:03;;;;;;;10.43;6.90;;;;;;;-0.39;79.60;98312.50;5073100;28;20103;-73
2023/01/21 08:04:28;;;;;;;13.05;7.07;;;;;;;-0.38;79.45;98323.06;5073472;28;20029;-73
2023/01/21 08:06:55;;;;;;;11.63;6.35;;;;;;;-0.33;79.83;98325.06;5073484;28;20447;-73
2023/01/21 08:09:23;;;;;;;13.30;7.28;;;;;;;-0.32;79.67;98321.31;5073281;28;20053;-73
2023/01/21 08:11:48;;;;;;;10.52;6.78;;;;;;;-0.33;79.65;98325.06;5073482;28;20029;-73
2023/01/21 08:14:13;;;;;;;11.15;7.63;;;;;;;-0.31;79.51;98325.66;5073247;28;20031;-73
2023/01/21 08:16:40;;;;;;;12.02;7.20;;;;;;;-0.29;79.68;98336.22;5055205;28;20486;-73
2023/01/21 08:19:05;;;;;;;10.60;6.88;;;;;;;-0.27;79.58;98324.16;5073421;28;20035;-73
2023/01/21 08:21:30;;;;;;;13.40;8.10;;;;;;;-0.25;79.47;98335.53;5073150;28;20119;-74
2023/01/21 08:23:56;;;;;;;14.65;7.97;;;;;;;-0.22;79.32;98331.56;5073262;28;20020;-73
2023/01/21 08:26:21;;;;;;;11.90;7.55;;;;;;;-0.22;79.86;98327.00;5073131;28;20024;-73
2023/01/21 08:28:47;;;;;;;15.02;8.20;;;;;;;-0.16;79.98;98333.31;5073248;28;20028;-73
2023/01/21 08:31:13;;;;;;;13.98;8.43;;;;;;;-0.10;79.22;98331.59;5073111;28;20516;-73
2023/01/21 08:33:39;;;;;;;11.85;7.85;;;;;;;-0.08;79.64;98327.63;5072496;28;20028;-73
2023/01/21 08:36:07;;;;;;;10.27;6.53;;;;;;;-0.09;79.55;98331.34;5072925;28;20470;-74
2023/01/21 08:38:33;;;;;;;13.68;7.28;;;;;;;-0.09;79.34;98327.84;5072037;28;20028;-73
2023/01/21 08:40:58;;;;;;;12.27;6.88;;;;;;;-0.09;79.21;98331.34;5073039;28;20371;-73
2023/01/21 08:43:25;;;;;;;9.50;6.80;;;;;;;-0.10;79.75;98337.81;5072612;28;20040;-72
2023/01/21 08:45:51;;;;;;;9.82;6.85;;;;;;;-0.09;79.19;98334.06;5072828;28;20024;-74
2023/01/21 08:48:18;;;;;;;12.38;7.00;;;;;;;-0.06;79.55;98340.88;5072567;28;20028;-73
2023/01/21 08:50:43;;;;;;;10.18;6.47;;;;;;;-0.05;79.43;98337.94;5072707;28;20028;-73
2023/01/21 08:53:09;;;;;;;8.48;6.40;;;;;;;-0.03;79.04;98335.03;5072634;28;20027;-73
2023/01/21 08:55:35;;;;;;;10.30;6.80;;;;;;;-0.04;79.14;98342.28;5072472;28;20021;-73
2023/01/21 08:58:00;;;;;;;10.60;6.75;;;;;;;-0.07;79.70;98345.44;5072544;28;20142;-73
2023/01/21 09:00:26;;;;;;;13.18;7.20;;;;;;;-0.12;79.27;98339.91;5072396;28;20517;-73
2023/01/21 09:02:51;;;;;;;8.60;6.30;;;;;;;-0.10;79.50;98345.09;5071045;28;20145;-73
2023/01/21 09:05:17;;;;;;;10.05;5.68;;;;;;;-0.10;79.21;98345.09;5072301;28;20060;-73
2023/01/21 09:07:44;;;;;;;11.05;6.10;;;;;;;-0.08;79.13;98349.19;5071928;28;20082;-73
2023/01/21 09:10:10;;;;;;;9.73;5.60;;;;;;;-0.08;79.78;98345.69;5072664;28;20099;-73
2023/01/21 09:12:37;;;;;;;10.45;6.43;;;;;;;-0.09;79.11;98347.53;5072044;28;20124;-73
2023/01/21 09:15:03;;;;;;;10.57;6.40;;;;;;;-0.10;79.47;98355.88;5054042;28;20028;-73
2023/01/21 09:17:28;;;;;;;12.20;6.80;;;;;;;-0.09;79.42;98344.84;5071974;28;20455;-73
2023/01/21 09:19:54;;;;;;;10.55;6.38;;;;;;;-0.05;79.27;98343.34;5072220;28;20079;-73
2023/01/21 09:22:19;;;;;;;10.52;6.72;;;;;;;0.00;78.94;98337.25;5071941;28;20060;-73
2023/01/21 09:24:44;;;;;;;9.10;6.55;;;;;;;-0.02;79.76;98342.88;5072141;28;20034;-74
2023/01/21 09:27:10;;;;;;;7.45;5.47;;;;;;;-0.03;79.49;98345.81;5072170;28;20654;-73
2023/01/21 09:29:35;;;;;;;9.32;6.03;;;;;;;-0.05;79.22;98347.91;5071832;28;20048;-74
2023/01/21 09:32:01;;;;;;;13.43;6.93;;;;;;;-0.06;79.71;98357.06;5071919;28;20051;-74
2023/01/21 09:34:27;;;;;;;7.63;5.35;;;;;;;-0.05;79.47;98366.78;5070441;28;20024;-74
2023/01/21 09:36:53;;;;;;;7.90;5.07;;;;;;;-0.04;79.30;98357.66;5072107;28;20028;-74
2023/01/21 09:39:18;;;;;;;7.13;5.15;;;;;;;-0.05;79.29;98364.91;5071923;28;20031;-75
2023/01/21 09:41:48;;;;;;;8.77;5.50;;;;;;;-0.01;79.48;98360.69;5071894;28;20039;-75
2023/01/21 09:44:26;;;;;;;9.70;5.82;;;;;;;0.06;79.11;98363.28;5071685;28;20024;-75
2023/01/21 09:47:04;;;;;;;8.20;5.30;;;;;;;0.14;79.61;98370.25;5071137;28;20379;-74
2023/01/21 09:49:40;;;;;;;10.45;6.18;;;;;;;0.20;79.92;98377.41;5071434;28;20072;-73
2023/01/21 09:52:41;;;;;;;9.25;5.50;;;;;;;0.21;79.32;98370.94;5068793;28;20036;-73
2023/01/21 09:55:38;;;;;;;22.55;14.48;;;;;;;0.22;79.52;98369.09;5068078;28;20021;-74
2023/01/21 09:58:32;;;;;;;34.80;25.13;;;;;;;0.21;79.30;98370.94;5062667;28;20490;-74
2023/01/21 10:00:57;;;;;;;19.27;13.88;;;;;;;0.24;79.20;98373.19;5070442;28;20081;-73
2023/01/21 10:03:35;;;;;;;25.65;13.52;;;;;;;0.26;79.41;98370.28;5070900;28;20028;-73
2023/01/21 10:06:14;;;;;;;52.50;30.60;;;;;;;0.29;79.62;98369.81;5070080;28;20031;-74
2023/01/21 10:08:47;;;;;;;35.35;19.33;;;;;;;0.33;78.93;98375.56;5069892;28;20032;-74
2023/01/21 10:11:31;;;;;;;28.40;13.85;;;;;;;0.36;79.13;98375.09;5070107;28;20060;-74
2023/01/21 10:14:08;;;;;;;25.27;13.65;;;;;;;0.39;79.28;98364.69;5069834;28;20031;-74
2023/01/21 10:16:36;;;;;;;18.02;10.18;;;;;;;0.43;78.56;98368.53;5069916;28;20108;-74
2023/01/21 10:19:04;;;;;;;11.13;7.05;;;;;;;0.40;79.14;98371.72;5070277;28;20043;-74
2023/01/21 10:22:02;;;;;;;7.40;5.20;;;;;;;0.41;79.46;98367.94;5070129;28;20059;-74
2023/01/21 10:24:52;;;;;;;10.50;7.15;;;;;;;0.45;79.25;98360.22;5069957;28;20482;-74
2023/01/21 10:27:21;;;;;;;8.93;6.03;;;;;;;0.53;78.85;98361.75;5070301;28;20534;-74
2023/01/21 10:30:17;;;;;;;9.65;6.13;;;;;;;0.54;79.34;98366.91;5070238;28;20026;-73
2023/01/21 10:32:44;;;;;;;9.00;6.93;;;;;;;0.57;78.92;98361.06;5031463;28;20041;-73
2023/01/21 10:35:19;;;;;;;9.13;6.05;;;;;;;0.60;79.45;98359.75;5070162;28;20020;-75
2023/01/21 10:37:56;;;;;;;9.88;6.18;;;;;;;0.65;79.01;98359.88;5070086;28;20028;-74
2023/01/21 10:40:41;;;;;;;8.38;5.85;;;;;;;0.70;78.37;98356.47;5070031;28;20411;-75
2023/01/21 10:43:20;;;;;;;7.88;5.50;;;;;;;0.69;78.63;98361.06;5069962;28;20099;-75
2023/01/21 10:45:59;;;;;;;10.30;6.50;;;;;;;0.70;78.87;98356.47;5069568;28;20509;-75
2023/01/21 10:48:56;;;;;;;8.88;6.07;;;;;;;0.71;78.93;98356.25;5052212;28;20028;-75
2023/01/21 10:51:41;;;;;;;9.38;6.38;;;;;;;0.77;78.64;98361.78;5068185;28;20041;-74
2023/01/21 10:54:28;;;;;;;8.90;6.07;;;;;;;0.77;79.07;98365.28;5069959;28;20024;-75
2023/01/21 10:57:05;;;;;;;7.85;5.72;;;;;;;0.75;78.19;98362.00;5069207;28;20032;-75
2023/01/21 10:59:32;;;;;;;9.10;5.88;;;;;;;0.76;78.40;98363.63;5069945;28;20498;-74
2023/01/21 11:02:06;;;;;;;7.75;5.38;;;;;;;0.78;78.30;98350.72;5072480;28;20068;-74
2023/01/21 11:04:32;;;;;;;9.30;5.38;;;;;;;0.81;78.57;98352.97;5073953;28;20513;-71
2023/01/21 11:07:00;;;;;;;9.98;6.32;;;;;;;0.82;78.21;98351.91;5073877;28;20032;-72
2023/01/21 11:09:30;;;;;;;7.93;5.20;;;;;;;0.86;78.68;98353.06;5073334;28;20084;-75
2023/01/21 11:11:55;;;;;;;16.95;7.55;;;;;;;0.86;78.14;98344.97;5055693;28;20414;-72
2023/01/21 11:14:24;;;;;;;17.27;9.23;;;;;;;0.85;78.34;98350.59;5073383;28;20027;-73
2023/01/21 11:16:51;;;;;;;7.57;5.22;;;;;;;0.83;78.03;98358.94;5072718;28;20021;-74
2023/01/21 11:19:30;;;;;;;13.55;6.55;;;;;;;0.78;77.76;98353.44;5072406;28;20474;-74
2023/01/21 11:22:15;;;;;;;8.00;5.35;;;;;;;0.75;77.82;98348.50;5071190;28;20033;-72
2023/01/21 11:24:43;;;;;;;16.48;7.72;;;;;;;0.75;78.14;98343.09;5073409;28;20044;-72
2023/01/21 11:27:21;;;;;;;18.77;8.65;;;;;;;0.80;78.43;98339.72;5070097;28;20025;-71
2023/01/21 11:29:48;;;;;;;17.45;9.45;;;;;;;0.84;78.17;98339.00;5070007;28;20509;-72
2023/01/21 11:32:22;;;;;;;16.02;9.38;;;;;;;0.85;77.91;98332.53;5070500;28;20035;-71
2023/01/21 11:35:03;;;;;;;15.95;8.02;;;;;;;0.90;78.13;98337.22;5073271;28;20025;-72
2023/01/21 11:37:31;;;;;;;15.63;7.60;;;;;;;0.89;77.53;98338.28;5072855;28;20025;-72
2023/01/21 11:40:04;;;;;;;10.27;6.60;;;;;;;0.88;77.65;98336.63;5073312;28;20024;-73